Austin, Texas
Traffic Map
Current Weather Conditions
Austin, Texas
Broken Clouds
Broken Clouds
87°
Feels Like: 94°
Wind Chill: 87° Ceiling: 3800
Heat Index: 94° Visibility: 10mi
Dew Point: 73° Wind: 6mph
Humidity: 63% Direction: ° ()
Pressure: 29.96in Gusts: 0mph
Raw Report DataKATT 211751Z AUTO VRB05KT 10SM SCT029 BKN038 31/23 A2996 RMK AO2 SLP133 T03060228 10322 20233 51001
Traffic Incident Summary
Active as of:
Severity:
Category:
InformationThere was an issue retrieving the traffic information for this location. Please try a different location or try again shortly.
Advertisements